Time;durP1;ratioP1;P1;durP2;ratioP2;P2;SDS_P1;SDS_P2;PMS_P1;PMS_P2;Temp;Humidity;BMP_temperature;BMP_pressure;BME280_temperature;BME280_humidity;BME280_pressure;Samples;Min_cycle;Max_cycle;Signal;HPM_P1;HPM_P2
2023/09/30 00:00:27;;;;;;;4.10;0.77;;;11.40;99.90;;;;;;4967984;28;20034;-86
2023/09/30 00:02:53;;;;;;;3.70;0.70;;;11.40;99.90;;;;;;4969089;28;20026;-88
2023/09/30 00:05:21;;;;;;;4.13;1.10;;;11.40;99.90;;;;;;4970826;28;20081;-87
2023/09/30 00:07:47;;;;;;;4.93;0.88;;;11.50;99.90;;;;;;4951668;28;20101;-89
2023/09/30 00:10:14;;;;;;;5.00;0.68;;;11.50;99.90;;;;;;4950991;28;20035;-87
2023/09/30 00:12:40;;;;;;;3.05;0.82;;;11.50;99.90;;;;;;4950391;28;20517;-88
2023/09/30 00:15:06;;;;;;;3.95;1.23;;;11.50;99.90;;;;;;4955457;28;20113;-88
2023/09/30 00:17:31;;;;;;;3.58;1.20;;;11.50;99.90;;;;;;4954511;28;20031;-88
2023/09/30 00:19:59;;;;;;;5.03;0.90;;;11.50;99.90;;;;;;4954762;28;20390;-86
2023/09/30 00:22:24;;;;;;;3.55;0.73;;;11.40;99.90;;;;;;4936617;28;20027;-88
2023/09/30 00:24:50;;;;;;;3.40;0.77;;;11.40;99.90;;;;;;4970227;28;20380;-88
2023/09/30 00:27:16;;;;;;;5.82;0.80;;;11.40;99.90;;;;;;4954955;28;20068;-86
2023/09/30 00:29:42;;;;;;;4.18;0.85;;;11.50;99.90;;;;;;4954952;28;20562;-88
2023/09/30 00:32:07;;;;;;;4.57;0.68;;;11.40;99.90;;;;;;4954928;28;20522;-88
2023/09/30 00:34:34;;;;;;;4.28;0.80;;;11.40;99.90;;;;;;4934502;28;20062;-88
2023/09/30 00:37:01;;;;;;;3.50;0.90;;;11.30;99.90;;;;;;4952026;28;20047;-88
2023/09/30 00:39:37;;;;;;;3.60;0.80;;;11.20;99.90;;;;;;4950740;28;20062;-86
2023/09/30 00:42:04;;;;;;;4.20;1.13;;;11.30;99.90;;;;;;4950387;28;20030;-86
2023/09/30 00:44:30;;;;;;;4.55;0.95;;;11.30;99.90;;;;;;4936595;28;20038;-88
2023/09/30 00:46:57;;;;;;;4.47;0.88;;;11.20;99.90;;;;;;4935717;28;20391;-88
2023/09/30 00:49:24;;;;;;;5.93;1.30;;;11.30;99.90;;;;;;4969711;28;20058;-87
2023/09/30 00:51:51;;;;;;;3.22;1.15;;;11.30;99.90;;;;;;4968947;28;20089;-87
2023/09/30 00:54:18;;;;;;;5.43;1.30;;;11.30;99.90;;;;;;4953038;28;20417;-87
2023/09/30 00:56:45;;;;;;;5.43;1.30;;;11.20;99.90;;;;;;4954051;28;20426;-89
2023/09/30 00:59:15;;;;;;;3.20;1.55;;;11.10;99.90;;;;;;4951045;28;20031;-88
2023/09/30 01:01:43;;;;;;;4.85;1.00;;;11.30;99.90;;;;;;4970024;28;20030;-88
2023/09/30 01:04:10;;;;;;;5.20;0.95;;;11.10;99.90;;;;;;4950701;28;20050;-87
2023/09/30 01:06:38;;;;;;;3.97;1.30;;;11.00;99.90;;;;;;4954037;28;20046;-88
2023/09/30 01:09:03;;;;;;;4.82;1.17;;;11.00;99.90;;;;;;4964783;28;20135;-88
2023/09/30 01:11:30;;;;;;;3.15;1.02;;;11.00;99.90;;;;;;4969075;28;20113;-88
2023/09/30 01:13:56;;;;;;;3.70;1.25;;;11.00;99.90;;;;;;4969514;28;20062;-88
2023/09/30 01:16:21;;;;;;;3.97;1.20;;;11.00;99.90;;;;;;4965957;28;20038;-88
2023/09/30 01:18:48;;;;;;;3.35;1.30;;;11.00;99.90;;;;;;4950993;28;20064;-88
2023/09/30 01:21:14;;;;;;;3.67;1.17;;;11.00;99.90;;;;;;4951495;28;20029;-89
2023/09/30 01:23:41;;;;;;;5.85;1.80;;;11.00;99.90;;;;;;4952004;28;20538;-88
2023/09/30 01:26:15;;;;;;;3.45;1.10;;;11.00;99.90;;;;;;4953946;28;20026;-88
2023/09/30 01:28:41;;;;;;;4.00;1.35;;;10.90;99.90;;;;;;4947113;28;20058;-86
2023/09/30 01:31:07;;;;;;;4.43;1.10;;;10.90;99.90;;;;;;4952997;28;20022;-89
2023/09/30 01:33:34;;;;;;;4.00;1.20;;;11.00;99.90;;;;;;4966966;28;20474;-89
2023/09/30 01:36:02;;;;;;;4.28;1.13;;;11.00;99.90;;;;;;4953226;28;20027;-88
2023/09/30 01:38:28;;;;;;;3.40;1.17;;;11.00;99.90;;;;;;4948614;28;20376;-88
2023/09/30 01:40:54;;;;;;;3.22;1.27;;;10.80;99.90;;;;;;4967329;28;20027;-88
2023/09/30 01:43:19;;;;;;;3.80;1.17;;;10.80;99.90;;;;;;4953551;28;20062;-87
2023/09/30 01:45:45;;;;;;;4.28;1.40;;;10.80;99.90;;;;;;4949881;28;20023;-89
2023/09/30 01:48:11;;;;;;;4.93;1.50;;;10.80;99.90;;;;;;4965207;28;20379;-87
2023/09/30 01:50:38;;;;;;;5.00;1.10;;;10.90;99.90;;;;;;4953358;28;20074;-88
2023/09/30 01:53:06;;;;;;;5.18;1.65;;;10.90;99.90;;;;;;4967010;28;20085;-90
2023/09/30 01:55:33;;;;;;;4.78;1.25;;;10.80;99.90;;;;;;4951945;28;20411;-89
2023/09/30 01:57:58;;;;;;;6.53;1.70;;;10.70;99.90;;;;;;4953462;28;20030;-89
2023/09/30 02:00:24;;;;;;;7.35;2.15;;;10.70;99.90;;;;;;4939932;28;20452;-87
2023/09/30 02:02:50;;;;;;;6.10;1.35;;;10.60;99.90;;;;;;4967654;28;20042;-87
2023/09/30 02:05:15;;;;;;;6.07;1.52;;;10.70;99.90;;;;;;4969194;28;20031;-87
2023/09/30 02:07:41;;;;;;;4.80;1.35;;;10.70;99.90;;;;;;4952683;28;20491;-87
2023/09/30 02:10:08;;;;;;;4.00;1.55;;;10.70;99.90;;;;;;4968058;28;20053;-88
2023/09/30 02:12:33;;;;;;;4.85;1.45;;;10.70;99.90;;;;;;4952830;28;20230;-88
2023/09/30 02:14:59;;;;;;;3.70;1.10;;;10.80;99.90;;;;;;4953195;28;20040;-88
2023/09/30 02:17:25;;;;;;;4.10;1.25;;;10.80;99.90;;;;;;4952637;28;20029;-87
2023/09/30 02:19:53;;;;;;;4.72;1.70;;;10.80;99.90;;;;;;4933434;28;20469;-89
2023/09/30 02:22:19;;;;;;;4.85;1.17;;;10.70;99.90;;;;;;4967522;28;20038;-87
2023/09/30 02:24:45;;;;;;;4.15;1.40;;;10.80;99.90;;;;;;4953770;28;20122;-88
2023/09/30 02:27:10;;;;;;;4.38;1.23;;;10.70;99.90;;;;;;4936782;28;20126;-88
2023/09/30 02:29:36;;;;;;;3.50;1.40;;;10.60;99.90;;;;;;4953335;28;20031;-88
2023/09/30 02:32:02;;;;;;;3.45;1.25;;;10.70;99.90;;;;;;4966470;28;20046;-88
2023/09/30 02:34:30;;;;;;;4.38;1.42;;;10.60;99.90;;;;;;4965448;28;20035;-88
2023/09/30 02:36:56;;;;;;;6.68;2.10;;;10.60;99.90;;;;;;4967179;28;20026;-88
2023/09/30 02:39:21;;;;;;;3.65;1.42;;;10.60;99.90;;;;;;4951386;28;20035;-88
2023/09/30 02:41:50;;;;;;;3.63;1.33;;;10.50;99.90;;;;;;4953209;28;20062;-90
2023/09/30 02:44:15;;;;;;;4.45;1.70;;;10.40;99.90;;;;;;4966729;28;20169;-87
2023/09/30 02:46:41;;;;;;;3.33;1.27;;;10.40;99.90;;;;;;4968625;28;20118;-88
2023/09/30 02:49:07;;;;;;;3.20;1.40;;;10.40;99.90;;;;;;4969498;28;20026;-90
2023/09/30 02:51:33;;;;;;;4.22;1.10;;;10.50;99.90;;;;;;4954945;28;20031;-88
2023/09/30 02:53:59;;;;;;;5.75;1.77;;;10.50;99.90;;;;;;4953843;28;20041;-88
2023/09/30 02:56:26;;;;;;;3.40;1.63;;;10.50;99.90;;;;;;4952212;28;20031;-89
2023/09/30 02:58:52;;;;;;;4.85;2.00;;;10.50;99.90;;;;;;4954894;28;20031;-91
2023/09/30 03:01:18;;;;;;;4.80;1.83;;;10.50;99.90;;;;;;4970130;28;20498;-89
2023/09/30 03:03:46;;;;;;;6.00;1.92;;;10.70;99.90;;;;;;4938155;28;20035;-88
2023/09/30 03:06:12;;;;;;;3.95;1.65;;;10.60;99.90;;;;;;4954509;28;20031;-89
2023/09/30 03:08:39;;;;;;;5.30;2.17;;;10.90;99.90;;;;;;4939350;28;20386;-88
2023/09/30 03:11:05;;;;;;;4.85;2.03;;;10.80;99.90;;;;;;4971204;28;20033;-89
2023/09/30 03:13:31;;;;;;;4.78;2.10;;;10.70;99.90;;;;;;4956278;28;20035;-87
2023/09/30 03:15:57;;;;;;;5.38;2.20;;;10.80;99.90;;;;;;4939806;28;20039;-87
2023/09/30 03:18:26;;;;;;;4.20;1.65;;;10.90;99.90;;;;;;4953796;28;20042;-88
2023/09/30 03:21:08;;;;;;;4.03;1.80;;;10.80;99.90;;;;;;4951682;28;20028;-92
2023/09/30 03:23:35;;;;;;;3.42;2.03;;;10.90;99.90;;;;;;4942997;29;20078;-89
2023/09/30 03:26:00;;;;;;;3.83;1.83;;;10.90;99.90;;;;;;4969394;28;20038;-90
2023/09/30 03:28:27;;;;;;;3.42;2.03;;;11.00;99.90;;;;;;4955241;28;20495;-88
2023/09/30 03:30:52;;;;;;;5.22;2.10;;;11.10;99.90;;;;;;4952830;28;20039;-88
2023/09/30 03:33:18;;;;;;;5.18;2.33;;;11.10;99.90;;;;;;4956378;28;20030;-88
2023/09/30 03:35:44;;;;;;;4.85;2.08;;;11.10;99.90;;;;;;4956401;28;20486;-89
2023/09/30 03:38:10;;;;;;;5.50;2.03;;;11.00;99.90;;;;;;4966850;28;20165;-89
2023/09/30 03:40:38;;;;;;;5.03;2.45;;;11.00;99.90;;;;;;4936219;28;20096;-88
2023/09/30 03:43:07;;;;;;;4.25;2.22;;;11.00;99.90;;;;;;4968515;28;20377;-88
2023/09/30 03:45:33;;;;;;;5.87;2.40;;;11.00;99.90;;;;;;4951538;28;20053;-88
2023/09/30 03:47:59;;;;;;;5.28;2.95;;;11.10;99.90;;;;;;4952104;28;20291;-88
2023/09/30 03:50:24;;;;;;;5.43;2.60;;;11.00;99.90;;;;;;4936423;28;20030;-88
2023/09/30 03:52:50;;;;;;;5.75;2.90;;;11.10;99.90;;;;;;4935987;28;20035;-89
2023/09/30 03:55:20;;;;;;;5.65;2.72;;;11.10;99.90;;;;;;4967780;28;20041;-88
2023/09/30 03:57:47;;;;;;;;;;;11.10;99.90;;;;;;4973395;28;20034;-88
2023/09/30 04:00:16;;;;;;;4.88;1.90;;;11.00;99.90;;;;;;4954615;28;19914;-88
2023/09/30 04:02:42;;;;;;;6.25;1.95;;;11.10;99.90;;;;;;4967966;28;20244;-89
2023/09/30 04:05:11;;;;;;;4.63;2.50;;;11.10;99.90;;;;;;4954079;28;20078;-89
2023/09/30 04:07:37;;;;;;;5.90;2.90;;;11.10;99.90;;;;;;4954951;28;20023;-90
2023/09/30 04:10:04;;;;;;;4.00;2.50;;;11.20;99.90;;;;;;4950879;28;20049;-90
2023/09/30 04:12:32;;;;;;;4.90;2.15;;;11.20;99.90;;;;;;4950939;28;20487;-90
2023/09/30 04:14:58;;;;;;;4.22;2.67;;;11.10;99.90;;;;;;4955076;28;20081;-88
2023/09/30 04:17:24;;;;;;;5.13;2.58;;;11.20;99.90;;;;;;4938423;28;20038;-90
2023/09/30 04:19:52;;;;;;;7.13;3.22;;;11.30;99.90;;;;;;4954962;28;20037;-89
2023/09/30 04:22:18;;;;;;;4.53;3.00;;;11.30;99.90;;;;;;4955026;28;20035;-88
2023/09/30 04:24:45;;;;;;;6.68;3.15;;;11.40;99.90;;;;;;4969204;28;20054;-88
2023/09/30 04:27:11;;;;;;;7.30;3.03;;;11.40;99.90;;;;;;4970134;28;20586;-90
2023/09/30 04:29:37;;;;;;;4.82;3.45;;;11.40;99.90;;;;;;4938954;28;20117;-88
2023/09/30 04:32:04;;;;;;;6.93;3.97;;;11.50;99.90;;;;;;4953272;28;20050;-89
2023/09/30 04:34:30;;;;;;;6.10;3.50;;;11.40;99.90;;;;;;4933585;28;20035;-90
2023/09/30 04:36:56;;;;;;;6.07;3.72;;;11.50;99.90;;;;;;4954677;28;20073;-88
2023/09/30 04:39:22;;;;;;;7.38;3.78;;;11.40;99.90;;;;;;4954276;28;20035;-89
2023/09/30 04:41:48;;;;;;;6.35;3.80;;;11.40;99.90;;;;;;4953707;28;20042;-88
2023/09/30 04:44:14;;;;;;;4.38;3.28;;;11.30;99.90;;;;;;4967375;28;20423;-90
2023/09/30 04:46:40;;;;;;;5.20;3.55;;;11.30;99.90;;;;;;4938380;28;20041;-88
2023/09/30 04:49:09;;;;;;;6.68;4.35;;;11.30;99.90;;;;;;4951434;28;20398;-89
2023/09/30 04:51:35;;;;;;;6.32;3.70;;;11.40;99.90;;;;;;4935668;28;20077;-91
2023/09/30 04:54:02;;;;;;;5.85;3.92;;;11.40;99.90;;;;;;4936898;28;20038;-88
2023/09/30 04:56:28;;;;;;;5.85;4.35;;;11.40;99.90;;;;;;4949715;28;20026;-88
2023/09/30 04:58:53;;;;;;;6.68;3.90;;;11.40;99.90;;;;;;4951442;28;20082;-89
2023/09/30 05:01:19;;;;;;;6.68;3.42;;;11.40;99.90;;;;;;4967026;28;20411;-89
2023/09/30 05:03:49;;;;;;;7.43;3.80;;;11.50;99.90;;;;;;4935754;28;20434;-88
2023/09/30 05:06:16;;;;;;;5.53;3.67;;;11.50;99.90;;;;;;4933863;28;20051;-88
2023/09/30 05:08:41;;;;;;;5.30;3.33;;;11.60;99.90;;;;;;4953363;28;20071;-90
2023/09/30 05:11:07;;;;;;;6.90;4.18;;;11.50;99.90;;;;;;4951661;28;20031;-89
2023/09/30 05:13:36;;;;;;;7.43;4.10;;;11.60;99.90;;;;;;4967836;28;20058;-90
2023/09/30 05:16:03;;;;;;;6.90;3.50;;;11.60;99.90;;;;;;4953428;28;20027;-90
2023/09/30 05:18:29;;;;;;;4.45;3.13;;;11.50;99.90;;;;;;4952369;28;20520;-88
2023/09/30 05:20:55;;;;;;;5.55;3.22;;;11.50;99.90;;;;;;4969718;28;20034;-90
2023/09/30 05:23:21;;;;;;;7.82;3.00;;;11.50;99.90;;;;;;4969208;28;20043;-89
2023/09/30 05:25:47;;;;;;;5.13;3.17;;;11.50;99.90;;;;;;4951999;28;20141;-90
2023/09/30 05:28:13;;;;;;;4.40;2.42;;;11.50;99.90;;;;;;4935608;28;20082;-88
2023/09/30 05:30:40;;;;;;;6.28;3.47;;;11.50;99.90;;;;;;4937517;28;20031;-89
2023/09/30 05:33:06;;;;;;;4.38;2.60;;;11.60;99.90;;;;;;4934898;28;20031;-89
2023/09/30 05:35:32;;;;;;;4.20;2.28;;;11.60;99.90;;;;;;4951024;28;20042;-89
2023/09/30 05:37:58;;;;;;;5.40;2.42;;;11.50;99.90;;;;;;4966948;28;20023;-90
2023/09/30 05:40:30;;;;;;;5.82;3.38;;;11.50;99.90;;;;;;4953826;28;20042;-89
2023/09/30 05:43:00;;;;;;;5.63;3.55;;;11.60;99.90;;;;;;4965436;28;20050;-90
2023/09/30 05:45:26;;;;;;;;;;;11.50;99.90;;;;;;4947602;28;20050;-89
2023/09/30 05:47:54;;;;;;;6.35;3.08;;;11.60;99.90;;;;;;4965485;28;19918;-91
2023/09/30 05:50:24;;;;;;;4.22;2.67;;;11.50;99.90;;;;;;4931718;29;20042;-89
2023/09/30 05:52:51;;;;;;;5.65;3.60;;;11.60;99.90;;;;;;4948719;28;20110;-90
2023/09/30 05:55:20;;;;;;;3.80;2.95;;;11.60;99.90;;;;;;4965414;28;20388;-88
2023/09/30 05:57:48;;;;;;;6.40;3.57;;;11.60;99.90;;;;;;4965844;28;20039;-90
2023/09/30 06:00:27;;;;;;;5.38;3.40;;;11.60;99.90;;;;;;4967750;28;20290;-90
2023/09/30 06:02:53;;;;;;;5.07;2.83;;;11.70;99.90;;;;;;4949999;28;20121;-88
2023/09/30 06:05:19;;;;;;;5.22;2.63;;;11.60;99.90;;;;;;4932460;28;20126;-88
2023/09/30 06:07:46;;;;;;;4.88;3.70;;;11.70;99.90;;;;;;4963237;28;20399;-88
2023/09/30 06:10:18;;;;;;;5.60;3.03;;;11.60;99.90;;;;;;4968837;28;20133;-89
2023/09/30 06:12:44;;;;;;;4.53;3.35;;;11.70;99.90;;;;;;4953313;28;20022;-89
2023/09/30 06:15:10;;;;;;;5.82;2.85;;;11.70;99.90;;;;;;4951772;28;20023;-90
2023/09/30 06:17:36;;;;;;;5.35;3.25;;;11.80;99.90;;;;;;4951754;28;20384;-89
2023/09/30 06:20:08;;;;;;;4.85;2.53;;;11.80;99.90;;;;;;4952509;28;20038;-91
2023/09/30 06:22:33;;;;;;;3.83;2.60;;;11.80;99.90;;;;;;4951827;28;20059;-87
2023/09/30 06:24:59;;;;;;;4.10;2.30;;;11.80;99.90;;;;;;4957266;28;20035;-89
2023/09/30 06:27:25;;;;;;;6.88;2.38;;;11.80;99.90;;;;;;4954861;28;20376;-89
2023/09/30 06:29:51;;;;;;;4.95;2.92;;;11.90;99.90;;;;;;4939920;28;20033;-92
2023/09/30 06:32:17;;;;;;;5.65;3.10;;;11.90;99.90;;;;;;4956088;28;20035;-90
2023/09/30 06:34:43;;;;;;;4.95;2.83;;;12.00;99.90;;;;;;4970124;28;20031;-90
2023/09/30 06:37:08;;;;;;;6.70;3.20;;;12.00;99.90;;;;;;4956326;28;20161;-87
2023/09/30 06:39:34;;;;;;;6.90;3.35;;;12.00;99.90;;;;;;4957030;28;20039;-90
2023/09/30 06:42:00;;;;;;;4.25;2.78;;;12.00;99.90;;;;;;4956143;28;20037;-90
2023/09/30 06:44:25;;;;;;;6.80;3.08;;;12.10;99.90;;;;;;4950840;28;20043;-88
2023/09/30 06:46:51;;;;;;;5.15;3.28;;;12.20;99.90;;;;;;4969717;28;20027;-90
2023/09/30 06:49:17;;;;;;;5.53;3.05;;;12.20;99.90;;;;;;4955884;28;20109;-88
2023/09/30 06:51:43;;;;;;;5.18;3.45;;;12.30;99.90;;;;;;4966692;28;20031;-90
2023/09/30 06:54:09;;;;;;;5.32;4.18;;;12.40;99.90;;;;;;4968929;28;20031;-90
2023/09/30 06:56:34;;;;;;;8.40;6.43;;;12.40;99.90;;;;;;4956580;28;20446;-90
2023/09/30 06:59:01;;;;;;;6.03;4.85;;;12.50;99.90;;;;;;4937419;28;20038;-90
2023/09/30 07:01:27;;;;;;;8.40;4.75;;;12.60;99.90;;;;;;4965167;28;20035;-90
2023/09/30 07:03:52;;;;;;;5.35;3.45;;;12.60;99.90;;;;;;4968063;28;20035;-89
2023/09/30 07:06:23;;;;;;;7.30;4.38;;;12.70;99.90;;;;;;4953493;28;20031;-89
2023/09/30 07:08:49;;;;;;;6.82;3.53;;;12.70;99.90;;;;;;4969386;28;20031;-88
2023/09/30 07:11:15;;;;;;;8.40;4.45;;;12.80;99.90;;;;;;4934900;28;20390;-90
2023/09/30 07:13:40;;;;;;;7.43;3.88;;;12.90;99.90;;;;;;4970760;28;20448;-88
2023/09/30 07:16:06;;;;;;;5.95;3.42;;;12.90;99.90;;;;;;4952680;28;20027;-89
2023/09/30 07:18:32;;;;;;;6.32;3.72;;;13.00;99.90;;;;;;4953524;28;20065;-90
2023/09/30 07:20:57;;;;;;;5.15;3.05;;;13.00;99.90;;;;;;4953089;28;20026;-90
2023/09/30 07:23:23;;;;;;;6.22;3.10;;;13.00;99.90;;;;;;4955331;28;20430;-91
2023/09/30 07:25:49;;;;;;;8.77;3.75;;;13.20;99.90;;;;;;4965898;28;20038;-88
2023/09/30 07:28:15;;;;;;;7.65;3.42;;;13.40;99.90;;;;;;4955505;28;20039;-87
2023/09/30 07:30:41;;;;;;;5.47;2.80;;;13.50;99.90;;;;;;4939652;28;20058;-91
2023/09/30 07:33:07;;;;;;;7.32;4.15;;;13.60;99.90;;;;;;4953623;28;20044;-91
2023/09/30 07:35:33;;;;;;;9.00;4.30;;;13.60;99.90;;;;;;4955025;28;20043;-89
2023/09/30 07:37:59;;;;;;;7.10;3.70;;;13.60;99.90;;;;;;4939465;28;20033;-91
2023/09/30 07:40:25;;;;;;;5.88;2.78;;;13.60;99.90;;;;;;4967354;28;20042;-89
2023/09/30 07:42:51;;;;;;;8.57;4.30;;;13.70;99.90;;;;;;4953470;28;20027;-92
2023/09/30 07:45:17;;;;;;;6.03;3.25;;;13.60;99.90;;;;;;4950931;28;20042;-91
2023/09/30 07:47:46;;;;;;;5.90;2.80;;;13.80;99.90;;;;;;4969208;28;20027;-91
2023/09/30 07:50:12;;;;;;;5.70;2.67;;;14.00;99.90;;;;;;4954880;28;20031;-91
2023/09/30 07:52:42;;;;;;;6.25;2.78;;;14.20;99.90;;;;;;4967247;28;20392;-89
2023/09/30 07:55:09;;;;;;;6.10;3.03;;;14.40;99.90;;;;;;4955243;28;20023;-89
2023/09/30 07:57:35;;;;;;;10.23;3.97;;;14.50;99.90;;;;;;4952656;28;20085;-90
2023/09/30 08:00:03;;;;;;;7.20;3.63;;;14.60;99.90;;;;;;4970723;28;20034;-89
2023/09/30 08:02:36;;;;;;;6.55;3.75;;;14.70;99.90;;;;;;4957625;28;20034;-94
2023/09/30 08:05:02;;;;;;;5.85;2.75;;;14.80;99.90;;;;;;4966189;28;20035;-89
2023/09/30 08:07:28;;;;;;;6.38;3.15;;;15.00;99.90;;;;;;4955596;28;20066;-90
2023/09/30 08:09:54;;;;;;;10.52;3.80;;;15.10;99.90;;;;;;4969360;28;20459;-89
2023/09/30 08:12:19;;;;;;;4.93;2.28;;;15.10;99.90;;;;;;4954095;28;20384;-90
2023/09/30 08:14:45;;;;;;;5.88;2.97;;;15.20;99.90;;;;;;4951465;28;20027;-92
2023/09/30 08:17:11;;;;;;;8.38;3.58;;;15.30;99.90;;;;;;4935656;28;20026;-94
2023/09/30 08:19:37;;;;;;;7.35;3.00;;;15.40;99.90;;;;;;4936775;28;20059;-90
2023/09/30 08:22:03;;;;;;;6.25;2.83;;;15.70;99.90;;;;;;4936256;28;20471;-92
2023/09/30 08:24:32;;;;;;;5.70;1.95;;;15.70;99.90;;;;;;4953075;28;20039;-89
2023/09/30 08:26:57;;;;;;;4.43;1.98;;;15.90;99.90;;;;;;4954125;28;20039;-91
2023/09/30 08:29:23;;;;;;;5.95;2.60;;;16.00;99.90;;;;;;4952636;28;20038;-90
2023/09/30 08:31:50;;;;;;;6.20;2.72;;;16.10;99.90;;;;;;4954516;28;20023;-92
2023/09/30 08:34:17;;;;;;;7.70;3.40;;;16.10;99.90;;;;;;4954085;28;20072;-89
2023/09/30 08:36:43;;;;;;;5.20;2.30;;;16.20;99.90;;;;;;4953537;28;20090;-90
2023/09/30 08:39:10;;;;;;;11.35;4.53;;;16.40;99.90;;;;;;4954126;28;20138;-88
2023/09/30 08:41:36;;;;;;;7.07;3.50;;;16.10;99.90;;;;;;4952012;28;20093;-94
2023/09/30 08:44:03;;;;;;;9.15;4.13;;;16.10;99.90;;;;;;4968817;28;20062;-91
2023/09/30 08:46:36;;;;;;;8.65;3.50;;;16.40;99.90;;;;;;4954377;28;20435;-91
2023/09/30 08:49:03;;;;;;;5.55;2.40;;;16.60;99.90;;;;;;4954234;28;20034;-92
2023/09/30 08:51:30;;;;;;;8.48;4.00;;;16.90;99.90;;;;;;4934983;28;20093;-92
2023/09/30 08:53:57;;;;;;;7.85;3.38;;;16.80;99.90;;;;;;4953540;28;20551;-90
2023/09/30 08:56:28;;;;;;;12.23;4.72;;;16.80;99.90;;;;;;4933345;28;20034;-92
2023/09/30 08:59:02;;;;;;;6.03;2.70;;;16.70;99.90;;;;;;4953241;28;20031;-93
2023/09/30 09:01:29;;;;;;;7.45;3.28;;;17.10;99.90;;;;;;4937324;28;20058;-90
2023/09/30 09:03:56;;;;;;;7.97;2.50;;;17.20;99.90;;;;;;4953517;28;20130;-91
2023/09/30 09:06:23;;;;;;;8.00;2.60;;;17.10;99.90;;;;;;4951296;28;20031;-90
2023/09/30 09:08:49;;;;;;;9.18;3.80;;;17.20;99.90;;;;;;4934730;28;20030;-93
2023/09/30 09:11:15;;;;;;;14.40;6.65;;;17.20;99.90;;;;;;4934671;28;20494;-91
2023/09/30 09:13:50;;;;;;;8.75;3.63;;;17.00;99.90;;;;;;4953308;28;20030;-92
2023/09/30 09:16:20;;;;;;;7.15;2.65;;;17.40;99.90;;;;;;4953711;28;20039;-90
2023/09/30 09:18:49;;;;;;;6.03;2.95;;;17.80;99.90;;;;;;4970284;28;20039;-90
2023/09/30 09:21:22;;;;;;;7.85;2.55;;;17.90;99.90;;;;;;4937519;28;20046;-89
2023/09/30 09:23:49;;;;;;;5.80;2.20;;;18.10;99.90;;;;;;4968525;28;20043;-92
2023/09/30 09:26:29;;;;;;;8.10;3.25;;;17.80;99.90;;;;;;4955260;28;20046;-93
2023/09/30 09:29:03;;;;;;;8.25;2.50;;;17.90;99.90;;;;;;4953936;28;20049;-94
2023/09/30 09:31:35;;;;;;;7.43;2.85;;;18.00;99.90;;;;;;4952768;28;20039;-91
2023/09/30 09:34:12;;;;;;;7.00;2.65;;;18.10;99.90;;;;;;4948589;28;20054;-91
2023/09/30 09:36:43;;;;;;;7.10;2.13;;;18.30;99.90;;;;;;4966837;28;20027;-91
2023/09/30 09:39:12;;;;;;;7.70;2.53;;;18.50;99.90;;;;;;4950749;28;20278;-89
2023/09/30 09:41:51;;;;;;;;;;;18.40;99.90;;;;;;4949787;28;20019;-88
2023/09/30 09:44:20;;;;;;;7.28;3.67;;;18.00;99.90;;;;;;4951793;28;19921;-91
2023/09/30 09:46:47;;;;;;;12.68;5.30;;;18.00;99.90;;;;;;4951094;28;20105;-89
2023/09/30 09:49:16;;;;;;;14.75;6.35;;;17.80;99.90;;;;;;4967514;28;20030;-89
2023/09/30 09:51:45;;;;;;;11.02;4.60;;;17.50;99.90;;;;;;4949907;28;20034;-91
2023/09/30 09:54:11;;;;;;;8.07;3.13;;;17.70;99.90;;;;;;4952820;28;20440;-89
2023/09/30 09:56:39;;;;;;;5.00;2.03;;;18.40;99.90;;;;;;4948602;28;20019;-93
2023/09/30 09:59:06;;;;;;;4.50;1.10;;;18.70;99.90;;;;;;4966927;28;20026;-91
2023/09/30 10:01:34;;;;;;;7.68;3.20;;;18.90;99.90;;;;;;4951002;28;20434;-90
2023/09/30 10:04:01;;;;;;;5.55;2.47;;;18.70;99.90;;;;;;4964259;28;20047;-88
2023/09/30 10:06:28;;;;;;;6.07;1.80;;;18.80;99.90;;;;;;4951120;28;20584;-89
2023/09/30 10:08:57;;;;;;;3.80;1.17;;;19.10;99.90;;;;;;4953053;28;20031;-92
2023/09/30 10:11:23;;;;;;;7.45;2.28;;;19.30;99.90;;;;;;4947643;28;20031;-89
2023/09/30 10:14:03;;;;;;;11.25;3.95;;;18.90;99.90;;;;;;4952797;28;20030;-90
2023/09/30 10:16:39;;;;;;;5.68;1.60;;;18.70;99.90;;;;;;4948408;28;20035;-89
2023/09/30 10:19:15;;;;;;;8.75;3.00;;;19.00;99.90;;;;;;4930770;28;20030;-93
2023/09/30 10:22:15;;;;;;;6.35;1.50;;;18.60;99.90;;;;;;4951892;28;20065;-91
2023/09/30 10:24:42;;;;;;;6.57;1.73;;;19.00;99.90;;;;;;4946602;28;20071;-90
2023/09/30 10:27:31;;;;;;;7.80;2.83;;;18.80;99.90;;;;;;4947712;28;20039;-89
2023/09/30 10:29:59;;;;;;;7.82;2.92;;;18.30;99.90;;;;;;4925987;29;20122;-88
2023/09/30 10:32:50;;;;;;;7.25;3.15;;;18.30;99.90;;;;;;4930465;28;20050;-86
2023/09/30 10:35:17;;;;;;;5.88;1.48;;;18.30;99.90;;;;;;4917044;28;20047;-90
2023/09/30 10:37:44;;;;;;;6.40;2.92;;;18.70;99.90;;;;;;4937374;28;20027;-89
2023/09/30 10:40:50;;;;;;;8.95;3.35;;;18.60;99.90;;;;;;4931039;28;20024;-89
2023/09/30 10:43:37;;;;;;;11.48;2.75;;;18.50;99.90;;;;;;4946400;28;20407;-91
2023/09/30 10:46:24;;;;;;;5.07;1.13;;;19.10;99.90;;;;;;4941449;28;20375;-91
2023/09/30 10:48:51;;;;;;;3.60;0.90;;;19.60;99.90;;;;;;4941018;28;20019;-91
2023/09/30 10:51:22;;;;;;;8.27;2.90;;;19.70;99.90;;;;;;4942611;28;20031;-87
2023/09/30 10:53:51;;;;;;;8.02;1.88;;;19.10;99.90;;;;;;4937427;28;20377;-92
2023/09/30 10:56:21;;;;;;;7.32;1.20;;;19.50;99.90;;;;;;4932531;28;21248;-91
2023/09/30 10:58:51;;;;;;;5.35;1.17;;;20.00;99.90;;;;;;4936462;28;20495;-91
2023/09/30 11:01:22;;;;;;;7.20;1.42;;;19.80;99.90;;;;;;4968812;28;20030;-90
2023/09/30 11:04:04;;;;;;;4.40;1.10;;;19.90;99.90;;;;;;4969173;28;20038;-91
2023/09/30 11:06:34;;;;;;;3.20;0.80;;;20.30;99.90;;;;;;4953244;28;20372;-89
2023/09/30 11:09:02;;;;;;;4.25;0.80;;;20.60;99.90;;;;;;4970596;28;20441;-90
2023/09/30 11:11:39;;;;;;;4.32;1.33;;;21.00;99.90;;;;;;4955288;28;20033;-91
2023/09/30 11:14:22;;;;;;;8.80;1.83;;;19.90;99.90;;;;;;4956153;28;20061;-91
2023/09/30 11:17:05;;;;;;;5.00;0.88;;;19.80;99.90;;;;;;4950983;28;20042;-95
2023/09/30 11:19:39;;;;;;;5.57;1.00;;;20.50;99.90;;;;;;4946863;28;20046;-92
2023/09/30 11:22:05;;;;;;;6.07;1.10;;;19.80;99.90;;;;;;4949705;28;20077;-91
2023/09/30 11:24:36;;;;;;;9.95;2.28;;;19.50;99.90;;;;;;4968801;28;20074;-90
2023/09/30 11:27:02;;;;;;;6.63;1.45;;;19.40;99.90;;;;;;4969164;28;20027;-90
2023/09/30 11:29:28;;;;;;;6.93;0.95;;;19.70;99.90;;;;;;4954641;28;20545;-90
2023/09/30 11:31:55;;;;;;;4.07;0.75;;;19.40;99.90;;;;;;4956485;28;20059;-91
2023/09/30 11:34:38;;;;;;;6.47;0.60;;;19.70;99.90;;;;;;4969067;28;20070;-91
2023/09/30 11:37:05;;;;;;;4.50;0.82;;;19.30;99.90;;;;;;4969332;28;20110;-92
2023/09/30 11:39:31;;;;;;;3.10;0.50;;;18.90;99.90;;;;;;4970032;28;20042;-92
2023/09/30 11:41:58;;;;;;;4.82;0.70;;;19.00;99.90;;;;;;4972080;28;20029;-91
2023/09/30 11:44:26;;;;;;;6.53;0.90;;;19.00;99.90;;;;;;4970018;28;20047;-91
2023/09/30 11:47:05;;;;;;;5.07;0.70;;;19.20;99.90;;;;;;4969304;28;20081;-93
2023/09/30 11:49:49;;;;;;;4.03;0.70;;;20.00;99.90;;;;;;4954764;28;20062;-90
2023/09/30 11:52:27;;;;;;;2.28;0.50;;;20.20;99.90;;;;;;4956048;28;20042;-91
2023/09/30 11:54:57;;;;;;;3.90;0.50;;;20.60;99.90;;;;;;4952331;28;20152;-90
2023/09/30 11:57:34;;;;;;;3.10;0.60;;;20.50;99.90;;;;;;4970759;28;20499;-91
2023/09/30 12:00:13;;;;;;;5.15;0.68;;;20.10;99.90;;;;;;4938022;28;20373;-92
2023/09/30 12:02:46;;;;;;;4.07;0.77;;;20.00;99.90;;;;;;4957112;28;20042;-92
2023/09/30 12:05:17;;;;;;;2.47;0.40;;;20.50;99.90;;;;;;4957793;28;20655;-91
2023/09/30 12:07:44;;;;;;;6.20;0.80;;;20.40;99.90;;;;;;4942101;28;20074;-91
2023/09/30 12:10:22;;;;;;;5.80;0.88;;;19.60;99.90;;;;;;4972938;28;20027;-92
2023/09/30 12:12:50;;;;;;;7.10;1.02;;;19.60;99.90;;;;;;4939569;28;20043;-88
2023/09/30 12:15:16;;;;;;;6.70;0.70;;;19.30;99.90;;;;;;4950971;28;20043;-89
2023/09/30 12:17:42;;;;;;;4.90;0.70;;;19.40;99.90;;;;;;4942676;28;20652;-89
2023/09/30 12:20:08;;;;;;;6.47;0.80;;;19.30;99.90;;;;;;4936585;28;20054;-92
2023/09/30 12:22:37;;;;;;;4.15;0.60;;;19.20;99.90;;;;;;4940336;28;20034;-89
2023/09/30 12:25:08;;;;;;;5.13;0.60;;;19.50;99.90;;;;;;4923639;28;20051;-89
2023/09/30 12:27:34;;;;;;;3.97;0.60;;;19.50;99.90;;;;;;4971547;28;20031;-90
2023/09/30 12:30:00;;;;;;;4.00;0.70;;;19.40;99.90;;;;;;4955864;28;20027;-91
2023/09/30 12:32:33;;;;;;;3.72;0.60;;;19.30;99.90;;;;;;4954314;28;20471;-92
2023/09/30 12:35:04;;;;;;;4.18;0.60;;;19.60;99.90;;;;;;4954127;28;20045;-90
2023/09/30 12:37:58;;;;;;;3.50;0.50;;;19.20;99.90;;;;;;4957647;28;20047;-90
2023/09/30 12:40:24;;;;;;;7.03;0.82;;;18.80;99.90;;;;;;4956853;28;20042;-86
2023/09/30 12:42:59;;;;;;;4.85;0.60;;;18.60;99.90;;;;;;4985738;23;20447;-91
2023/09/30 12:45:25;;;;;;;3.72;0.70;;;18.50;99.90;;;;;;4964466;28;20694;-90
2023/09/30 12:47:52;;;;;;;3.72;0.70;;;18.40;99.90;;;;;;4969327;28;20031;-90
2023/09/30 12:50:24;;;;;;;3.35;0.50;;;18.30;99.90;;;;;;4965108;28;20491;-91
2023/09/30 12:52:50;;;;;;;6.95;0.70;;;18.60;99.90;;;;;;4956458;28;20439;-90